Medvezegorsk, Russia
Current Conditions -  °F | °C
As of 2:50 PM on Sunday 21 Dec 2014 (Local Time) from EFJO Reporting Station
Light Snow Light Snow  
Wind Chill: 19°   Ceiling: 700
Heat Index: 27°   Visibility: 1.8mi
Dew Point: 27°   Wind: 7mph
Humidity: 100%   Direction: 290°WNW
Pressure: 29.09"   Gusts: NA
Location:  62.92°N, 34.43°E
Report Text: EFJO 211150Z AUTO 29006KT 3000 -SN BKN007 OVC043 M03/M03 Q0985
Loading
Personal Weather Stations






























Interactive Weather Map New forecast layout! Learn more

10-Day Weather Forecast

Advertisements
Track Severe Weather on mobile